createdAt,value
2022-11-26T00:00:52.205Z,5.60
2022-11-26T00:03:20.912Z,5.75
2022-11-26T00:05:51.847Z,5.85
2022-11-26T00:08:27.578Z,5.60
2022-11-26T00:10:56.217Z,6.57
2022-11-26T00:13:26.963Z,6.05
2022-11-26T00:15:55.622Z,6.80
2022-11-26T00:18:26.659Z,6.82
2022-11-26T00:20:57.109Z,7.70
2022-11-26T00:23:29.241Z,6.23
2022-11-26T00:25:59.771Z,5.97
2022-11-26T00:28:30.788Z,5.47
2022-11-26T00:33:28.334Z,6.50
2022-11-26T00:35:59.538Z,6.72
2022-11-26T00:38:30.596Z,5.50
2022-11-26T00:43:27.022Z,6.32
2022-11-26T00:45:55.194Z,6.10
2022-11-26T00:48:23.420Z,6.43
2022-11-26T00:50:52.893Z,6.25
2022-11-26T00:53:26.954Z,7.22
2022-11-26T00:55:56.689Z,6.65
2022-11-26T00:58:26.999Z,6.35
2022-11-26T01:00:55.479Z,5.83
2022-11-26T01:03:24.214Z,6.13
2022-11-26T01:05:53.903Z,6.22
2022-11-26T01:08:31.700Z,6.35
2022-11-26T01:11:02.221Z,5.90
2022-11-26T01:13:31.026Z,6.22
2022-11-26T01:16:01.345Z,6.47
2022-11-26T01:18:35.648Z,7.20
2022-11-26T01:21:03.831Z,6.22
2022-11-26T01:23:31.859Z,5.72
2022-11-26T01:26:06.223Z,5.43
2022-11-26T01:28:34.741Z,7.22
2022-11-26T01:31:02.847Z,5.93
2022-11-26T01:33:30.965Z,5.60
2022-11-26T01:35:59.039Z,6.05
2022-11-26T01:38:27.177Z,6.22
2022-11-26T01:41:09.062Z,7.55
2022-11-26T01:43:41.138Z,6.07
2022-11-26T01:46:16.404Z,5.50
2022-11-26T01:48:45.171Z,6.50
2022-11-26T01:51:13.903Z,7.00
2022-11-26T01:53:51.008Z,5.68
2022-11-26T01:56:29.837Z,6.20
2022-11-26T01:59:03.258Z,4.63
2022-11-26T02:01:31.663Z,6.60
2022-11-26T02:04:13.366Z,6.22
2022-11-26T02:06:43.802Z,6.35
2022-11-26T02:09:13.689Z,6.28
2022-11-26T02:11:43.828Z,6.80
2022-11-26T02:14:16.762Z,6.00
2022-11-26T02:17:07.557Z,7.65
2022-11-26T02:20:15.587Z,6.20
2022-11-26T02:23:23.319Z,6.53
2022-11-26T02:26:18.054Z,5.43
2022-11-26T02:29:18.941Z,5.72
2022-11-26T02:31:52.485Z,5.35
2022-11-26T02:34:26.110Z,7.80
2022-11-26T02:36:58.210Z,5.72
2022-11-26T02:39:29.159Z,5.35
2022-11-26T02:41:59.291Z,6.28
2022-11-26T02:44:32.320Z,5.53
2022-11-26T02:47:06.006Z,5.78
2022-11-26T02:49:35.593Z,6.10
2022-11-26T02:52:06.051Z,5.68
2022-11-26T02:54:36.333Z,5.40
2022-11-26T02:57:07.701Z,5.22
2022-11-26T03:02:11.135Z,5.53
2022-11-26T03:04:43.889Z,5.50
2022-11-26T03:07:13.539Z,5.70
2022-11-26T03:09:43.958Z,5.22
2022-11-26T03:12:12.161Z,5.05
2022-11-26T03:14:40.436Z,7.22
2022-11-26T03:17:09.985Z,6.22
2022-11-26T03:19:38.209Z,6.07
2022-11-26T03:22:06.561Z,5.95
2022-11-26T03:24:34.803Z,5.90
2022-11-26T03:27:02.912Z,5.00
2022-11-26T03:29:31.232Z,5.10
2022-11-26T03:31:59.661Z,5.47
2022-11-26T03:34:29.338Z,5.47
2022-11-26T03:36:57.467Z,5.60
2022-11-26T03:39:25.604Z,4.70
2022-11-26T03:41:53.721Z,6.15
2022-11-26T03:44:22.027Z,5.90
2022-11-26T03:46:50.106Z,5.22
2022-11-26T03:49:18.245Z,7.05
2022-11-26T03:51:47.797Z,5.38
2022-11-26T03:54:15.853Z,5.32
2022-11-26T03:56:44.016Z,5.75
2022-11-26T03:59:12.188Z,6.15
2022-11-26T04:01:40.352Z,5.53
2022-11-26T04:04:08.719Z,5.95
2022-11-26T04:06:36.853Z,5.60
2022-11-26T04:09:06.469Z,6.60
2022-11-26T04:11:34.603Z,6.40
2022-11-26T04:14:02.714Z,6.28
2022-11-26T04:16:30.939Z,4.85
2022-11-26T04:18:59.248Z,5.53
2022-11-26T04:21:27.427Z,5.80
2022-11-26T04:23:56.206Z,5.63
2022-11-26T04:26:25.877Z,5.90
2022-11-26T04:28:53.990Z,5.90
2022-11-26T04:31:22.215Z,4.85
2022-11-26T04:33:50.332Z,6.63
2022-11-26T04:36:18.561Z,5.63
2022-11-26T04:38:46.934Z,5.18
2022-11-26T04:41:15.093Z,5.45
2022-11-26T04:43:45.315Z,5.82
2022-11-26T04:46:13.545Z,5.47
2022-11-26T04:48:41.689Z,6.32
2022-11-26T04:51:09.796Z,5.43
2022-11-26T04:53:37.902Z,5.63
2022-11-26T04:56:06.393Z,4.88
2022-11-26T04:58:34.500Z,5.20
2022-11-26T05:01:04.114Z,5.65
2022-11-26T05:03:32.277Z,5.60
2022-11-26T05:06:00.410Z,5.55
2022-11-26T05:08:28.522Z,5.20
2022-11-26T05:10:58.426Z,5.28
2022-11-26T05:13:26.522Z,5.35
2022-11-26T05:15:54.636Z,5.40
2022-11-26T05:18:24.110Z,5.68
2022-11-26T05:20:52.332Z,4.78
2022-11-26T05:23:20.412Z,4.93
2022-11-26T05:25:48.928Z,5.65
2022-11-26T05:28:17.051Z,4.85
2022-11-26T05:30:45.159Z,6.03
2022-11-26T05:33:13.273Z,5.10
2022-11-26T05:35:42.789Z,5.63
2022-11-26T05:38:11.214Z,4.47
2022-11-26T05:40:39.277Z,5.50
2022-11-26T05:43:07.442Z,6.35
2022-11-26T05:45:35.629Z,5.65
2022-11-26T05:48:03.844Z,4.97
2022-11-26T05:50:32.873Z,4.90
2022-11-26T05:53:02.506Z,6.80
2022-11-26T05:55:30.601Z,6.00
2022-11-26T05:57:58.898Z,4.68
2022-11-26T06:00:27.091Z,5.53
2022-11-26T06:02:55.285Z,4.88
2022-11-26T06:05:23.480Z,4.70
2022-11-26T06:07:51.876Z,5.10
2022-11-26T06:10:21.766Z,4.72
2022-11-26T06:12:50.297Z,4.55
2022-11-26T06:15:18.563Z,4.97
2022-11-26T06:17:46.705Z,4.43
2022-11-26T06:20:15.148Z,4.35
2022-11-26T06:22:44.886Z,4.85
2022-11-26T06:25:14.942Z,4.85
2022-11-26T06:27:44.472Z,4.80
2022-11-26T06:30:13.498Z,4.60
2022-11-26T06:32:41.662Z,4.25
2022-11-26T06:35:10.633Z,4.78
2022-11-26T06:37:38.816Z,4.63
2022-11-26T06:40:08.274Z,4.78
2022-11-26T06:42:36.576Z,6.30
2022-11-26T06:45:06.769Z,4.35
2022-11-26T06:47:34.970Z,5.20
2022-11-26T06:50:06.482Z,5.28
2022-11-26T06:52:38.762Z,4.50
2022-11-26T06:55:07.572Z,4.90
2022-11-26T06:57:35.891Z,5.53
2022-11-26T07:00:06.277Z,6.60
2022-11-26T07:02:34.486Z,4.32
2022-11-26T07:05:02.554Z,4.40
2022-11-26T07:07:30.698Z,5.93
2022-11-26T07:09:58.933Z,4.43
2022-11-26T07:12:27.491Z,4.60
2022-11-26T07:14:55.633Z,5.15
2022-11-26T07:17:25.178Z,4.07
2022-11-26T07:19:53.304Z,4.65
2022-11-26T07:22:21.453Z,4.85
2022-11-26T07:24:49.601Z,5.07
2022-11-26T07:27:17.825Z,4.60
2022-11-26T07:29:46.128Z,5.35
2022-11-26T07:32:14.358Z,5.05
2022-11-26T07:34:44.129Z,4.38
2022-11-26T07:37:12.338Z,4.07
2022-11-26T07:39:40.482Z,4.30
2022-11-26T07:42:08.578Z,4.88
2022-11-26T07:44:36.938Z,5.28
2022-11-26T07:47:05.475Z,4.47
2022-11-26T07:49:33.572Z,4.72
2022-11-26T07:52:03.106Z,5.05
2022-11-26T07:54:31.269Z,5.22
2022-11-26T07:56:59.402Z,4.60
2022-11-26T07:59:27.550Z,4.30
2022-11-26T08:01:55.658Z,4.75
2022-11-26T08:04:23.825Z,4.85
2022-11-26T08:06:51.945Z,4.35
2022-11-26T08:09:21.380Z,4.32
2022-11-26T08:11:49.606Z,4.65
2022-11-26T08:14:17.728Z,4.93
2022-11-26T08:16:45.935Z,4.72
2022-11-26T08:19:15.093Z,4.25
2022-11-26T08:21:43.206Z,4.68
2022-11-26T08:24:15.592Z,4.90
2022-11-26T08:26:46.149Z,4.35
2022-11-26T08:29:14.813Z,5.35
2022-11-26T08:31:46.214Z,4.57
2022-11-26T08:34:16.500Z,4.10
2022-11-26T08:36:45.220Z,4.22
2022-11-26T08:39:14.550Z,4.78
2022-11-26T08:41:48.953Z,4.57
2022-11-26T08:44:20.537Z,4.82
2022-11-26T08:46:48.896Z,5.18
2022-11-26T08:49:17.966Z,5.10
2022-11-26T08:51:46.526Z,5.60
2022-11-26T08:54:14.704Z,7.13
2022-11-26T08:56:44.282Z,10.85
2022-11-26T08:59:12.511Z,15.15
2022-11-26T09:01:40.763Z,18.48
2022-11-26T09:04:08.917Z,19.67
2022-11-26T09:06:37.845Z,22.98
2022-11-26T09:09:13.880Z,27.30
2022-11-26T09:11:46.321Z,25.38
2022-11-26T09:14:15.195Z,24.30
2022-11-26T09:16:43.431Z,24.80
2022-11-26T09:19:14.807Z,26.10
2022-11-26T09:21:45.699Z,27.42
2022-11-26T09:24:14.309Z,29.90
2022-11-26T09:26:42.521Z,27.85
2022-11-26T09:29:14.488Z,25.23
2022-11-26T09:32:00.610Z,24.80
2022-11-26T09:34:31.273Z,26.30
2022-11-26T09:36:59.412Z,25.52
2022-11-26T09:39:27.623Z,26.05
2022-11-26T09:42:06.795Z,29.48
2022-11-26T09:44:47.198Z,29.38
2022-11-26T09:47:19.486Z,25.40
2022-11-26T09:49:58.342Z,34.17
2022-11-26T09:52:30.441Z,24.45
2022-11-26T09:55:05.521Z,32.53
2022-11-26T09:57:40.690Z,25.60
2022-11-26T10:00:26.442Z,25.42
2022-11-26T10:02:56.247Z,24.73
2022-11-26T10:05:35.470Z,28.20
2022-11-26T10:08:09.161Z,30.27
2022-11-26T10:10:47.926Z,24.25
2022-11-26T10:13:26.072Z,25.23
2022-11-26T10:16:04.381Z,24.75
2022-11-26T10:18:41.976Z,23.23
2022-11-26T10:21:32.386Z,23.92
2022-11-26T10:24:12.746Z,26.98
2022-11-26T10:26:41.903Z,22.75
2022-11-26T10:29:21.723Z,23.20
2022-11-26T10:31:54.588Z,23.48
2022-11-26T10:34:37.490Z,22.77
2022-11-26T10:37:07.441Z,20.38
2022-11-26T10:39:35.643Z,20.00
2022-11-26T10:42:05.773Z,22.15
2022-11-26T10:44:40.030Z,22.87
2022-11-26T10:47:29.054Z,23.20
2022-11-26T10:50:39.540Z,25.33
2022-11-26T10:53:06.947Z,19.73
2022-11-26T10:55:39.503Z,22.75
2022-11-26T10:58:16.088Z,17.95
2022-11-26T11:00:47.087Z,20.58
2022-11-26T11:06:29.059Z,20.92
2022-11-26T11:08:57.467Z,20.45
2022-11-26T11:11:27.369Z,23.52
2022-11-26T11:13:56.299Z,20.00
2022-11-26T11:16:29.280Z,16.48
2022-11-26T11:19:01.324Z,17.27
2022-11-26T11:21:31.910Z,15.38
2022-11-26T11:24:15.041Z,16.33
2022-11-26T11:26:45.649Z,20.30
2022-11-26T11:29:35.605Z,21.17
2022-11-26T11:32:06.676Z,20.75
2022-11-26T11:34:39.145Z,18.08
2022-11-26T11:37:15.383Z,18.50
2022-11-26T11:39:44.593Z,15.68
2022-11-26T11:42:23.148Z,17.77
2022-11-26T11:44:53.312Z,19.10
2022-11-26T11:47:37.010Z,18.47
2022-11-26T11:50:16.946Z,21.25
2022-11-26T11:52:57.203Z,16.42
2022-11-26T11:55:34.662Z,17.25
2022-11-26T11:58:15.546Z,16.77
2022-11-26T12:00:50.468Z,19.60
2022-11-26T12:04:01.728Z,14.52
2022-11-26T12:06:40.364Z,19.40
2022-11-26T12:09:18.790Z,14.75
2022-11-26T12:11:56.292Z,18.33
2022-11-26T12:14:29.965Z,18.95
2022-11-26T12:17:04.941Z,15.73
2022-11-26T12:19:40.230Z,15.13
2022-11-26T12:22:15.561Z,15.63
2022-11-26T12:24:48.778Z,15.52
2022-11-26T12:27:28.209Z,15.32
2022-11-26T12:29:59.753Z,13.00
2022-11-26T12:32:35.249Z,13.48
2022-11-26T12:35:08.455Z,13.93
2022-11-26T12:37:41.515Z,14.63
2022-11-26T12:40:20.765Z,12.70
2022-11-26T12:42:56.279Z,15.40
2022-11-26T12:45:40.425Z,13.15
2022-11-26T12:48:18.773Z,13.85
2022-11-26T12:50:54.005Z,13.55
2022-11-26T12:53:33.486Z,13.55
2022-11-26T12:56:10.636Z,17.60
2022-11-26T12:58:48.502Z,14.65
2022-11-26T13:01:16.861Z,18.20
2022-11-26T13:03:45.184Z,15.95
2022-11-26T13:06:25.033Z,15.18
2022-11-26T13:09:04.485Z,12.85
2022-11-26T13:11:41.857Z,13.65
2022-11-26T13:14:18.515Z,14.48
2022-11-26T13:16:53.676Z,14.18
2022-11-26T13:19:29.552Z,15.35
2022-11-26T13:22:29.225Z,13.55
2022-11-26T13:25:29.517Z,15.43
2022-11-26T13:28:08.780Z,14.60
2022-11-26T13:30:47.922Z,13.18
2022-11-26T13:33:45.831Z,15.73
2022-11-26T13:36:42.081Z,13.35
2022-11-26T13:39:46.591Z,12.70
2022-11-26T13:42:35.142Z,12.68
2022-11-26T13:45:23.629Z,13.93
2022-11-26T13:47:55.753Z,27.65
2022-11-26T13:50:29.619Z,19.17
2022-11-26T13:53:01.546Z,17.02
2022-11-26T13:55:34.233Z,16.65
2022-11-26T13:58:06.927Z,16.10
2022-11-26T14:00:37.239Z,17.52
2022-11-26T14:03:06.242Z,14.70
2022-11-26T14:06:08.356Z,21.52
2022-11-26T14:08:39.199Z,15.05
2022-11-26T14:11:07.723Z,14.82
2022-11-26T14:13:37.980Z,15.52
2022-11-26T14:16:08.687Z,14.57
2022-11-26T14:19:06.748Z,13.40
2022-11-26T14:22:00.262Z,15.15
2022-11-26T14:24:56.517Z,15.43
2022-11-26T14:27:26.541Z,16.23
2022-11-26T14:30:01.246Z,18.10
2022-11-26T14:32:34.716Z,19.55
2022-11-26T14:35:02.791Z,19.90
2022-11-26T14:37:32.243Z,20.65
2022-11-26T14:40:01.441Z,18.13
2022-11-26T14:42:30.364Z,19.92
2022-11-26T14:45:04.758Z,19.52
2022-11-26T14:47:34.875Z,15.80
2022-11-26T14:50:07.183Z,19.63
2022-11-26T14:52:38.011Z,19.83
2022-11-26T14:55:10.273Z,18.30
2022-11-26T14:57:44.184Z,20.00
2022-11-26T15:00:25.103Z,16.55
2022-11-26T15:02:54.387Z,24.52
2022-11-26T15:05:25.058Z,30.10
2022-11-26T15:08:00.398Z,24.85
2022-11-26T15:10:31.854Z,27.20
2022-11-26T15:13:04.804Z,27.20
2022-11-26T15:15:34.349Z,30.63
2022-11-26T15:18:06.619Z,35.28
2022-11-26T15:20:35.415Z,35.33
2022-11-26T15:23:06.757Z,36.40
2022-11-26T15:25:37.414Z,30.63
2022-11-26T15:28:07.163Z,28.70
2022-11-26T15:30:38.470Z,32.65
2022-11-26T15:33:14.550Z,28.63
2022-11-26T15:35:43.851Z,30.48
2022-11-26T15:38:15.462Z,38.72
2022-11-26T15:40:47.498Z,34.60
2022-11-26T15:43:22.253Z,45.63
2022-11-26T15:45:53.928Z,44.92
2022-11-26T15:48:44.114Z,51.75
2022-11-26T15:51:24.649Z,45.38
2022-11-26T15:53:53.711Z,47.88
2022-11-26T15:56:26.215Z,47.85
2022-11-26T15:58:58.213Z,45.63
2022-11-26T16:01:30.502Z,46.92
2022-11-26T16:04:00.143Z,55.45
2022-11-26T16:06:31.538Z,50.53
2022-11-26T16:09:02.789Z,46.67
2022-11-26T16:11:33.974Z,46.60
2022-11-26T16:14:23.684Z,54.92
2022-11-26T16:16:53.900Z,44.40
2022-11-26T16:19:23.105Z,41.10
2022-11-26T16:21:53.432Z,43.08
2022-11-26T16:24:30.637Z,45.67
2022-11-26T16:27:00.870Z,53.55
2022-11-26T16:29:30.868Z,47.90
2022-11-26T16:32:01.020Z,50.22
2022-11-26T16:34:29.638Z,54.77
2022-11-26T16:37:05.665Z,43.15
2022-11-26T16:39:39.142Z,53.58
2022-11-26T16:42:15.136Z,46.67
2022-11-26T16:44:43.331Z,42.55
2022-11-26T16:47:17.078Z,46.30
2022-11-26T16:49:45.139Z,52.10
2022-11-26T16:52:15.583Z,42.92
2022-11-26T16:54:43.725Z,44.78
2022-11-26T16:57:16.470Z,44.95
2022-11-26T16:59:46.585Z,58.47
2022-11-26T17:02:18.779Z,43.90
2022-11-26T17:04:47.295Z,41.05
2022-11-26T17:07:18.310Z,36.22
2022-11-26T17:12:19.148Z,33.20
2022-11-26T17:14:47.927Z,36.97
2022-11-26T17:17:23.627Z,36.88
2022-11-26T17:19:53.226Z,55.47
2022-11-26T17:22:21.578Z,42.92
2022-11-26T17:24:49.725Z,43.00
2022-11-26T17:27:20.594Z,36.15
2022-11-26T17:29:49.475Z,31.95
2022-11-26T17:32:21.084Z,34.00
2022-11-26T17:34:49.226Z,34.40
2022-11-26T17:37:21.202Z,26.25
2022-11-26T17:39:49.501Z,29.10
2022-11-26T17:42:19.792Z,31.05
2022-11-26T17:44:48.165Z,28.53
2022-11-26T17:47:19.343Z,28.65
2022-11-26T17:49:48.266Z,38.08
2022-11-26T17:52:17.204Z,23.98
2022-11-26T17:54:46.165Z,30.25
2022-11-26T17:57:15.540Z,26.10
2022-11-26T17:59:44.477Z,23.23
2022-11-26T18:02:12.920Z,31.10
2022-11-26T18:04:42.521Z,25.13
2022-11-26T18:07:14.937Z,25.17
2022-11-26T18:09:43.610Z,21.83
2022-11-26T18:12:24.678Z,33.38
2022-11-26T18:14:53.632Z,23.50
2022-11-26T18:17:22.534Z,20.08
2022-11-26T18:19:52.168Z,20.15
2022-11-26T18:22:23.285Z,23.65
2022-11-26T18:24:56.950Z,23.67
2022-11-26T18:27:27.399Z,21.88
2022-11-26T18:29:55.837Z,22.27
2022-11-26T18:32:24.061Z,17.63
2022-11-26T18:34:53.605Z,19.70
2022-11-26T18:37:21.706Z,21.70
2022-11-26T18:39:49.869Z,16.73
2022-11-26T18:45:07.697Z,21.02
2022-11-26T18:47:35.944Z,18.30
2022-11-26T18:50:06.377Z,18.55
2022-11-26T18:52:34.935Z,16.33
2022-11-26T18:55:04.830Z,19.92
2022-11-26T18:57:33.455Z,21.70
2022-11-26T19:00:01.595Z,16.08
2022-11-26T19:02:29.758Z,15.90
2022-11-26T19:04:58.222Z,21.52
2022-11-26T19:07:27.839Z,21.83
2022-11-26T19:09:55.957Z,16.63
2022-11-26T19:12:24.074Z,14.30
2022-11-26T19:14:52.174Z,15.57
2022-11-26T19:17:20.339Z,19.27
2022-11-26T19:19:49.218Z,18.15
2022-11-26T19:22:17.406Z,16.65
2022-11-26T19:24:46.989Z,14.45
2022-11-26T19:27:15.095Z,10.85
2022-11-26T19:29:43.233Z,14.20
2022-11-26T19:32:11.386Z,14.05
2022-11-26T19:34:40.200Z,13.15
2022-11-26T19:37:08.495Z,14.18
2022-11-26T19:39:37.446Z,15.60
2022-11-26T19:42:07.501Z,13.43
2022-11-26T19:44:36.066Z,12.25
2022-11-26T19:47:04.899Z,13.95
2022-11-26T19:49:33.119Z,15.57
2022-11-26T19:52:01.382Z,14.57
2022-11-26T19:54:29.460Z,16.90
2022-11-26T19:56:57.584Z,14.73
2022-11-26T19:59:27.137Z,18.65
2022-11-26T20:01:55.942Z,11.95
2022-11-26T20:04:27.511Z,13.80
2022-11-26T20:06:55.706Z,12.00
2022-11-26T20:09:24.096Z,16.52
2022-11-26T20:11:52.106Z,11.95
2022-11-26T20:14:20.361Z,14.77
2022-11-26T20:16:49.827Z,11.57
2022-11-26T20:19:18.283Z,14.18
2022-11-26T20:21:46.462Z,13.43
2022-11-26T20:24:17.262Z,12.00
2022-11-26T20:26:48.557Z,13.13
2022-11-26T20:29:18.354Z,11.48
2022-11-26T20:31:48.137Z,12.68
2022-11-26T20:34:19.817Z,9.75
2022-11-26T20:36:48.358Z,13.43
2022-11-26T20:39:18.028Z,12.45
2022-11-26T20:41:46.864Z,11.88
2022-11-26T20:44:15.487Z,11.23
2022-11-26T20:46:44.208Z,13.43
2022-11-26T20:49:12.506Z,13.40
2022-11-26T20:51:42.238Z,11.23
2022-11-26T20:54:11.220Z,13.60
2022-11-26T20:56:39.728Z,11.85
2022-11-26T20:59:09.753Z,12.77
2022-11-26T21:01:38.522Z,12.07
2022-11-26T21:04:06.912Z,10.93
2022-11-26T21:06:36.313Z,11.07
2022-11-26T21:09:07.483Z,12.50
2022-11-26T21:11:36.253Z,11.90
2022-11-26T21:14:04.651Z,10.57
2022-11-26T21:16:33.938Z,12.73
2022-11-26T21:19:02.451Z,12.13
2022-11-26T21:21:31.340Z,13.32
2022-11-26T21:24:04.454Z,15.75
2022-11-26T21:26:34.237Z,10.85
2022-11-26T21:29:03.517Z,9.52
2022-11-26T21:31:32.800Z,11.00
2022-11-26T21:34:02.325Z,12.23
2022-11-26T21:36:32.580Z,10.40
2022-11-26T21:39:00.754Z,10.57
2022-11-26T21:41:29.142Z,10.40
2022-11-26T21:44:02.867Z,9.82
2022-11-26T21:46:37.551Z,11.10
2022-11-26T21:49:06.207Z,11.55
2022-11-26T21:51:34.944Z,11.30
2022-11-26T21:54:03.149Z,12.40
2022-11-26T21:56:32.909Z,9.25
2022-11-26T21:59:02.793Z,11.30
2022-11-26T22:01:33.055Z,10.15
2022-11-26T22:04:03.259Z,13.10
2022-11-26T22:06:31.985Z,8.70
2022-11-26T22:09:00.511Z,11.55
2022-11-26T22:11:30.389Z,9.38
2022-11-26T22:13:58.883Z,9.45
2022-11-26T22:16:29.998Z,9.02
2022-11-26T22:18:59.968Z,10.48
2022-11-26T22:21:30.762Z,9.48
2022-11-26T22:24:00.026Z,10.30
2022-11-26T22:26:29.192Z,10.32
2022-11-26T22:28:57.646Z,10.25
2022-11-26T22:31:28.965Z,8.82
2022-11-26T22:33:58.724Z,9.80
2022-11-26T22:36:27.367Z,10.63
2022-11-26T22:38:56.016Z,8.32
2022-11-26T22:41:24.738Z,8.48
2022-11-26T22:43:53.060Z,9.00
2022-11-26T22:46:23.553Z,10.65
2022-11-26T22:48:54.895Z,9.80
2022-11-26T22:51:23.532Z,12.38
2022-11-26T22:53:52.517Z,9.77
2022-11-26T22:56:21.364Z,8.70
2022-11-26T22:58:50.029Z,10.30
2022-11-26T23:01:21.490Z,8.75
2022-11-26T23:03:50.296Z,8.25
2022-11-26T23:06:21.369Z,9.85
2022-11-26T23:08:49.643Z,10.00
2022-11-26T23:11:21.049Z,8.27
2022-11-26T23:13:50.755Z,7.82
2022-11-26T23:16:19.946Z,9.52
2022-11-26T23:18:48.415Z,9.45
2022-11-26T23:21:21.332Z,9.35
2022-11-26T23:23:50.538Z,8.50
2022-11-26T23:26:26.529Z,7.88
2022-11-26T23:28:56.377Z,9.68
2022-11-26T23:31:26.128Z,8.70
2022-11-26T23:33:54.790Z,8.85
2022-11-26T23:36:25.505Z,9.07
2022-11-26T23:38:53.793Z,9.75
2022-11-26T23:41:22.414Z,7.65
2022-11-26T23:43:50.553Z,9.18
2022-11-26T23:46:20.359Z,10.18
2022-11-26T23:48:49.663Z,8.75
2022-11-26T23:51:19.175Z,7.40
2022-11-26T23:53:50.831Z,6.30
2022-11-26T23:56:21.074Z,6.75
2022-11-26T23:58:51.148Z,8.63
